createdAt,value
2019-03-04T00:01:43.660Z,15.55
2019-03-04T00:04:13.425Z,16.17
2019-03-04T00:06:43.121Z,16.00
2019-03-04T00:09:12.748Z,16.30
2019-03-04T00:11:42.380Z,16.30
2019-03-04T00:14:11.800Z,17.40
2019-03-04T00:16:41.427Z,16.35
2019-03-04T00:19:11.054Z,15.58
2019-03-04T00:21:40.682Z,15.80
2019-03-04T00:24:10.210Z,15.37
2019-03-04T00:26:39.843Z,14.90
2019-03-04T00:29:09.462Z,15.35
2019-03-04T00:31:39.091Z,15.67
2019-03-04T00:34:08.679Z,14.77
2019-03-04T00:36:38.248Z,14.45
2019-03-04T00:39:10.603Z,14.63
2019-03-04T00:41:40.370Z,15.23
2019-03-04T00:44:09.990Z,14.23
2019-03-04T00:46:39.623Z,14.30
2019-03-04T00:49:09.245Z,15.48
2019-03-04T00:51:38.792Z,13.87
2019-03-04T00:54:08.501Z,15.60
2019-03-04T00:56:38.131Z,14.00
2019-03-04T00:59:07.758Z,15.03
2019-03-04T01:01:37.388Z,15.93
2019-03-04T01:04:06.911Z,15.60
2019-03-04T01:06:36.540Z,16.20
2019-03-04T01:09:07.966Z,15.20
2019-03-04T01:11:37.637Z,17.00
2019-03-04T01:14:07.163Z,15.63
2019-03-04T01:16:36.891Z,15.18
2019-03-04T01:19:06.525Z,16.20
2019-03-04T01:21:36.065Z,16.47
2019-03-04T01:24:05.778Z,15.75
2019-03-04T01:26:35.302Z,14.97
2019-03-04T01:29:05.037Z,14.25
2019-03-04T01:31:34.657Z,15.70
2019-03-04T01:34:04.186Z,14.93
2019-03-04T01:36:33.811Z,16.00
2019-03-04T01:39:04.845Z,14.77
2019-03-04T01:41:34.907Z,15.95
2019-03-04T01:44:04.537Z,16.40
2019-03-04T01:46:34.164Z,14.47
2019-03-04T01:49:03.688Z,14.18
2019-03-04T01:51:33.318Z,14.68
2019-03-04T01:54:02.942Z,15.58
2019-03-04T01:56:32.474Z,14.60
2019-03-04T01:59:02.097Z,14.18
2019-03-04T02:01:31.723Z,13.93
2019-03-04T02:04:01.374Z,14.43
2019-03-04T02:06:30.980Z,14.40
2019-03-04T02:09:00.607Z,14.47
2019-03-04T02:11:31.771Z,16.15
2019-03-04T02:14:01.399Z,13.93
2019-03-04T02:16:32.566Z,14.18
2019-03-04T02:19:02.292Z,15.93
2019-03-04T02:21:31.921Z,13.77
2019-03-04T02:24:19.140Z,14.63
2019-03-04T02:26:48.764Z,14.73
2019-03-04T02:29:18.491Z,15.33
2019-03-04T02:31:48.126Z,15.20
2019-03-04T02:34:17.752Z,14.40
2019-03-04T02:36:47.359Z,16.03
2019-03-04T02:39:16.917Z,17.25
2019-03-04T02:41:46.434Z,15.60
2019-03-04T02:44:16.057Z,15.60
2019-03-04T02:46:45.794Z,16.03
2019-03-04T02:49:15.413Z,16.50
2019-03-04T02:51:45.044Z,16.10
2019-03-04T02:54:14.776Z,15.83
2019-03-04T02:56:44.401Z,16.10
2019-03-04T02:59:15.572Z,16.62
2019-03-04T03:01:45.201Z,17.00
2019-03-04T03:04:14.720Z,16.27
2019-03-04T03:06:44.353Z,14.65
2019-03-04T03:09:14.079Z,16.63
2019-03-04T03:11:43.597Z,17.80
2019-03-04T03:14:13.349Z,15.43
2019-03-04T03:16:42.858Z,17.57
2019-03-04T03:19:12.480Z,17.67
2019-03-04T03:21:42.209Z,16.70
2019-03-04T03:24:11.744Z,17.10
2019-03-04T03:26:41.479Z,18.27
2019-03-04T03:29:11.093Z,18.43
2019-03-04T03:31:40.951Z,18.82
2019-03-04T03:34:10.557Z,16.52
2019-03-04T03:36:40.290Z,17.87
2019-03-04T03:39:10.016Z,17.17
2019-03-04T03:41:39.751Z,15.98
2019-03-04T03:44:09.480Z,16.77
2019-03-04T03:46:39.008Z,17.17
2019-03-04T03:49:08.628Z,17.07
2019-03-04T03:51:38.358Z,16.87
2019-03-04T03:54:08.084Z,15.70
2019-03-04T03:56:37.714Z,16.27
2019-03-04T03:59:07.451Z,16.35
2019-03-04T04:01:37.184Z,16.82
2019-03-04T04:04:06.823Z,15.83
2019-03-04T04:06:36.489Z,17.00
2019-03-04T04:09:06.262Z,18.70
2019-03-04T04:11:35.993Z,16.93
2019-03-04T04:14:05.518Z,15.83
2019-03-04T04:16:35.145Z,16.12
2019-03-04T04:19:04.874Z,18.10
2019-03-04T04:21:34.403Z,17.33
2019-03-04T04:24:04.140Z,16.85
2019-03-04T04:26:33.868Z,16.73
2019-03-04T04:29:05.020Z,17.10
2019-03-04T04:31:34.762Z,17.17
2019-03-04T04:34:04.382Z,19.80
2019-03-04T04:36:34.009Z,19.90
2019-03-04T04:39:04.561Z,19.62
2019-03-04T04:41:35.568Z,19.20
2019-03-04T04:44:05.242Z,18.98
2019-03-04T04:46:55.117Z,19.87
2019-03-04T04:49:25.774Z,19.42
2019-03-04T04:51:56.530Z,18.40
2019-03-04T04:54:26.155Z,18.87
2019-03-04T04:56:56.605Z,20.20
2019-03-04T04:59:26.121Z,20.85
2019-03-04T05:01:55.758Z,18.83
2019-03-04T05:04:25.382Z,19.92
2019-03-04T05:06:55.527Z,19.57
2019-03-04T05:09:25.143Z,19.40
2019-03-04T05:11:55.179Z,20.03
2019-03-04T05:14:24.916Z,20.15
2019-03-04T05:16:55.564Z,21.33
2019-03-04T05:19:26.630Z,20.77
2019-03-04T05:21:56.355Z,21.23
2019-03-04T05:24:25.877Z,21.20
2019-03-04T05:26:55.715Z,19.15
2019-03-04T05:29:25.339Z,19.17
2019-03-04T05:31:55.319Z,18.93
2019-03-04T05:34:25.002Z,21.35
2019-03-04T05:36:56.660Z,20.25
2019-03-04T05:39:26.001Z,22.98
2019-03-04T05:41:55.826Z,20.82
2019-03-04T05:44:25.955Z,22.00
2019-03-04T05:46:55.698Z,20.20
2019-03-04T05:49:25.345Z,19.50
2019-03-04T05:51:55.157Z,20.90
2019-03-04T05:54:25.168Z,20.35
2019-03-04T05:56:55.346Z,19.62
2019-03-04T05:59:24.849Z,20.05
2019-03-04T06:02:00.728Z,20.88
2019-03-04T06:04:30.367Z,20.52
2019-03-04T06:07:07.657Z,20.40
2019-03-04T06:09:38.337Z,21.02
2019-03-04T06:12:08.350Z,21.57
2019-03-04T06:14:38.181Z,21.23
2019-03-04T06:17:07.696Z,20.35
2019-03-04T06:19:37.360Z,20.32
2019-03-04T06:22:07.259Z,20.33
2019-03-04T06:24:36.991Z,19.98
2019-03-04T06:27:06.830Z,20.17
2019-03-04T06:29:36.558Z,19.62
2019-03-04T06:32:06.179Z,19.93
2019-03-04T06:34:35.846Z,21.87
2019-03-04T06:37:05.536Z,20.72
2019-03-04T06:39:35.065Z,21.17
2019-03-04T06:42:04.797Z,20.37
2019-03-04T06:44:34.418Z,21.10
2019-03-04T06:49:33.882Z,21.80
2019-03-04T06:52:03.511Z,21.60
2019-03-04T06:54:39.376Z,21.13
2019-03-04T06:57:12.482Z,21.87
2019-03-04T06:59:45.383Z,21.05
2019-03-04T07:02:21.251Z,20.27
2019-03-04T07:04:54.147Z,21.42
2019-03-04T07:07:23.675Z,21.68
2019-03-04T07:09:53.212Z,22.93
2019-03-04T07:12:22.818Z,20.30
2019-03-04T07:14:52.457Z,20.83
2019-03-04T07:17:22.291Z,22.13
2019-03-04T07:20:13.193Z,19.90
2019-03-04T07:22:42.819Z,21.23
2019-03-04T07:27:44.351Z,22.67
2019-03-04T07:30:18.655Z,20.35
2019-03-04T07:32:48.280Z,21.12
2019-03-04T07:35:17.923Z,19.80
2019-03-04T07:37:47.542Z,21.13
2019-03-04T07:40:19.294Z,19.53
2019-03-04T07:42:48.837Z,19.15
2019-03-04T07:45:18.577Z,18.87
2019-03-04T07:47:48.298Z,19.12
2019-03-04T07:50:17.925Z,20.27
2019-03-04T07:52:49.084Z,20.00
2019-03-04T07:55:18.715Z,20.45
2019-03-04T07:57:48.346Z,18.83
2019-03-04T08:00:17.969Z,17.23
2019-03-04T08:02:47.911Z,18.30
2019-03-04T08:05:17.431Z,19.85
2019-03-04T08:07:53.418Z,18.45
2019-03-04T08:10:55.145Z,19.10
2019-03-04T08:13:28.047Z,21.20
2019-03-04T08:15:57.782Z,19.27
2019-03-04T08:18:27.616Z,19.00
2019-03-04T08:20:57.242Z,17.85
2019-03-04T08:23:26.758Z,17.77
2019-03-04T08:25:56.390Z,17.92
2019-03-04T08:28:26.120Z,17.07
2019-03-04T08:30:56.155Z,16.60
2019-03-04T08:33:25.688Z,18.67
2019-03-04T08:35:55.430Z,17.57
2019-03-04T08:38:25.240Z,18.65
2019-03-04T08:40:54.890Z,18.27
2019-03-04T08:43:24.599Z,18.63
2019-03-04T08:45:54.345Z,17.55
2019-03-04T08:48:24.072Z,18.73
2019-03-04T08:50:53.790Z,17.23
2019-03-04T08:53:23.417Z,18.20
2019-03-04T08:55:53.066Z,18.42
2019-03-04T08:58:22.682Z,17.37
2019-03-04T09:00:52.300Z,16.63
2019-03-04T09:03:21.931Z,16.40
2019-03-04T09:05:52.275Z,16.90
2019-03-04T09:08:22.005Z,17.62
2019-03-04T09:10:51.536Z,17.67
2019-03-04T09:13:21.265Z,17.43
2019-03-04T09:15:51.297Z,18.57
2019-03-04T09:18:20.946Z,17.20
2019-03-04T09:20:50.561Z,17.20
2019-03-04T09:23:20.185Z,17.97
2019-03-04T09:25:58.806Z,19.27
2019-03-04T09:28:28.547Z,18.95
2019-03-04T09:30:58.268Z,18.07
2019-03-04T09:35:57.727Z,18.17
2019-03-04T09:38:27.460Z,19.70
2019-03-04T09:40:57.127Z,20.68
2019-03-04T09:43:26.816Z,17.92
2019-03-04T09:45:56.561Z,18.15
2019-03-04T09:48:26.705Z,19.50
2019-03-04T09:50:56.429Z,19.52
2019-03-04T09:53:26.145Z,16.77
2019-03-04T09:55:55.780Z,16.55
2019-03-04T09:58:25.505Z,17.40
2019-03-04T10:01:01.385Z,17.30
2019-03-04T10:03:39.907Z,19.80
2019-03-04T10:06:15.662Z,20.75
2019-03-04T10:08:48.666Z,20.65
2019-03-04T10:11:53.576Z,20.05
2019-03-04T10:15:08.023Z,20.55
2019-03-04T10:17:46.838Z,18.55
2019-03-04T10:20:35.999Z,21.20
2019-03-04T10:23:25.571Z,22.13
2019-03-04T10:26:07.783Z,20.35
2019-03-04T10:29:08.045Z,19.77
2019-03-04T10:31:46.929Z,19.80
2019-03-04T10:34:36.293Z,20.43
2019-03-04T10:37:30.367Z,19.92
2019-03-04T10:40:03.268Z,19.25
2019-03-04T10:43:06.386Z,20.02
2019-03-04T10:45:58.866Z,20.55
2019-03-04T10:48:28.599Z,20.25
2019-03-04T10:50:58.326Z,19.35
2019-03-04T10:53:27.850Z,20.43
2019-03-04T10:55:57.594Z,21.03
2019-03-04T10:58:29.943Z,18.02
2019-03-04T11:01:00.222Z,20.05
2019-03-04T11:03:29.843Z,19.98
2019-03-04T11:05:59.471Z,20.70
2019-03-04T11:08:29.201Z,21.68
2019-03-04T11:10:58.933Z,22.58
2019-03-04T11:13:28.560Z,103.35
2019-03-04T11:15:58.185Z,468.80
2019-03-04T11:18:27.823Z,670.10
2019-03-04T11:20:57.447Z,902.23
2019-03-04T11:23:28.911Z,555.60
2019-03-04T11:28:27.550Z,73.15
2019-03-04T11:30:57.177Z,53.33
2019-03-04T11:33:26.713Z,762.58
2019-03-04T11:35:56.542Z,813.97
2019-03-04T11:38:37.566Z,889.50
2019-03-04T11:41:09.003Z,876.40
2019-03-04T11:43:38.799Z,633.33
2019-03-04T11:46:08.550Z,141.62
2019-03-04T11:48:38.282Z,746.48
2019-03-04T11:51:07.910Z,994.77
2019-03-04T11:53:37.744Z,728.67
2019-03-04T11:56:07.369Z,631.78
2019-03-04T11:58:37.016Z,238.62
2019-03-04T12:01:17.467Z,52.70
2019-03-04T12:03:47.417Z,34.18
2019-03-04T12:06:17.236Z,30.40
2019-03-04T12:08:46.857Z,27.93
2019-03-04T12:11:16.609Z,25.60
2019-03-04T12:13:47.449Z,24.92
2019-03-04T12:16:17.044Z,26.65
2019-03-04T12:18:46.661Z,25.87
2019-03-04T12:21:16.327Z,26.50
2019-03-04T12:23:47.414Z,25.72
2019-03-04T12:26:18.624Z,26.48
2019-03-04T12:28:48.487Z,24.57
2019-03-04T12:31:18.225Z,26.35
2019-03-04T12:33:47.846Z,24.82
2019-03-04T12:36:18.598Z,23.07
2019-03-04T12:38:48.335Z,23.90
2019-03-04T12:41:17.953Z,26.30
2019-03-04T12:43:47.582Z,25.67
2019-03-04T12:46:17.324Z,23.70
2019-03-04T12:48:47.042Z,24.32
2019-03-04T12:51:23.174Z,22.05
2019-03-04T12:53:48.136Z,20.90
2019-03-04T12:56:18.797Z,20.68
2019-03-04T12:58:48.623Z,21.02
2019-03-04T13:01:19.373Z,21.42
2019-03-04T13:03:49.042Z,21.23
2019-03-04T13:06:18.843Z,23.57
2019-03-04T13:08:48.464Z,20.10
2019-03-04T13:11:18.089Z,22.50
2019-03-04T13:13:47.776Z,20.65
2019-03-04T13:16:17.548Z,20.97
2019-03-04T13:18:47.288Z,20.55
2019-03-04T13:21:16.861Z,19.90
2019-03-04T13:23:46.545Z,20.97
2019-03-04T13:26:16.193Z,21.70
2019-03-04T13:28:46.411Z,21.07
2019-03-04T13:31:17.771Z,21.35
2019-03-04T13:33:47.504Z,18.95
2019-03-04T13:36:17.058Z,21.30
2019-03-04T13:38:46.661Z,20.23
2019-03-04T13:41:16.390Z,20.53
2019-03-04T13:43:45.912Z,21.20
2019-03-04T13:46:15.537Z,20.92
2019-03-04T13:48:45.371Z,22.67
2019-03-04T13:51:15.002Z,23.45
2019-03-04T13:53:45.857Z,21.55
2019-03-04T13:56:15.487Z,21.33
2019-03-04T13:58:45.221Z,21.80
2019-03-04T14:01:14.743Z,21.62
2019-03-04T14:03:44.477Z,21.47
2019-03-04T14:06:14.204Z,20.85
2019-03-04T14:08:44.027Z,20.77
2019-03-04T14:11:13.561Z,21.25
2019-03-04T14:13:43.300Z,20.77
2019-03-04T14:16:12.816Z,22.03
2019-03-04T14:18:42.446Z,20.50
2019-03-04T14:21:11.966Z,22.63
2019-03-04T14:23:41.644Z,21.27
2019-03-04T14:26:11.529Z,23.12
2019-03-04T14:28:41.079Z,21.73
2019-03-04T14:31:14.167Z,21.40
2019-03-04T14:33:43.993Z,22.50
2019-03-04T14:36:13.725Z,21.40
2019-03-04T14:38:43.453Z,22.27
2019-03-04T14:41:14.215Z,25.57
2019-03-04T14:43:43.935Z,24.15
2019-03-04T14:46:22.358Z,23.50
2019-03-04T14:48:51.983Z,24.98
2019-03-04T14:51:21.719Z,23.80
2019-03-04T14:53:52.469Z,24.57
2019-03-04T14:56:22.798Z,24.70
2019-03-04T15:01:23.090Z,22.90
2019-03-04T15:03:52.722Z,22.82
2019-03-04T15:06:22.354Z,23.37
2019-03-04T15:08:52.087Z,23.07
2019-03-04T15:11:21.510Z,20.80
2019-03-04T15:13:51.234Z,21.10
2019-03-04T15:16:20.968Z,20.50
2019-03-04T15:18:50.745Z,20.25
2019-03-04T15:21:20.427Z,20.57
2019-03-04T15:23:50.050Z,21.30
2019-03-04T15:26:19.678Z,22.10
2019-03-04T15:28:49.413Z,21.83
2019-03-04T15:31:19.399Z,21.65
2019-03-04T15:33:49.080Z,21.12
2019-03-04T15:36:18.684Z,21.00
2019-03-04T15:38:48.638Z,22.73
2019-03-04T15:41:18.367Z,21.87
2019-03-04T15:43:48.223Z,23.10
2019-03-04T15:46:19.467Z,22.73
2019-03-04T15:48:49.091Z,23.25
2019-03-04T15:51:18.718Z,23.45
2019-03-04T15:53:48.560Z,22.40
2019-03-04T15:56:19.830Z,22.60
2019-03-04T15:58:51.691Z,22.98
2019-03-04T16:01:20.811Z,23.77
2019-03-04T16:03:50.934Z,22.23
2019-03-04T16:06:20.576Z,23.55
2019-03-04T16:08:50.306Z,23.90
2019-03-04T16:11:19.951Z,24.32
2019-03-04T16:13:54.165Z,25.40
2019-03-04T16:16:21.337Z,24.80
2019-03-04T16:18:50.961Z,25.37
2019-03-04T16:21:20.702Z,25.47
2019-03-04T16:23:50.533Z,24.25
2019-03-04T16:26:20.157Z,23.57
2019-03-04T16:31:28.211Z,23.47
2019-03-04T16:33:58.021Z,25.50
2019-03-04T16:36:27.876Z,26.57
2019-03-04T16:38:57.948Z,22.67
2019-03-04T16:41:27.824Z,20.25
2019-03-04T16:43:57.583Z,22.58
2019-03-04T16:46:27.154Z,20.20
2019-03-04T16:48:56.831Z,19.03
2019-03-04T16:51:26.561Z,18.52
2019-03-04T16:53:56.302Z,17.65
2019-03-04T16:56:26.023Z,17.67
2019-03-04T16:58:56.883Z,18.52
2019-03-04T17:01:26.499Z,17.90
2019-03-04T17:03:56.138Z,14.93
2019-03-04T17:06:25.864Z,18.57
2019-03-04T17:08:55.595Z,18.37
2019-03-04T17:11:25.338Z,19.75
2019-03-04T17:13:55.297Z,19.40
2019-03-04T17:16:25.023Z,21.05
2019-03-04T17:18:54.731Z,19.62
2019-03-04T17:21:24.448Z,19.30
2019-03-04T17:23:54.109Z,20.27
2019-03-04T17:26:23.805Z,18.40
2019-03-04T17:28:53.547Z,17.70
2019-03-04T17:31:24.292Z,18.23
2019-03-04T17:33:55.046Z,18.75
2019-03-04T17:36:24.878Z,17.87
2019-03-04T17:38:54.396Z,16.75
2019-03-04T17:41:24.031Z,18.10
2019-03-04T17:43:53.861Z,18.25
2019-03-04T17:46:23.589Z,18.15
2019-03-04T17:48:53.115Z,17.65
2019-03-04T17:51:22.859Z,17.87
2019-03-04T17:53:52.486Z,18.65
2019-03-04T17:56:22.315Z,19.02
2019-03-04T17:58:52.146Z,17.70
2019-03-04T18:01:21.873Z,18.27
2019-03-04T18:03:51.423Z,17.77
2019-03-04T18:06:22.150Z,18.05
2019-03-04T18:08:51.775Z,17.75
2019-03-04T18:11:21.504Z,18.05
2019-03-04T18:13:51.179Z,18.65
2019-03-04T18:16:20.866Z,17.85
2019-03-04T18:18:50.424Z,17.62
2019-03-04T18:21:20.092Z,17.67
2019-03-04T18:23:49.753Z,17.35
2019-03-04T18:26:22.853Z,16.85
2019-03-04T18:29:01.787Z,17.77
2019-03-04T18:31:41.138Z,17.30
2019-03-04T18:34:33.464Z,18.70
2019-03-04T18:37:12.295Z,18.52
2019-03-04T18:40:03.507Z,18.35
2019-03-04T18:42:36.705Z,37.23
2019-03-04T18:45:19.751Z,36.25
2019-03-04T18:48:12.378Z,38.78
2019-03-04T18:50:42.109Z,39.53
2019-03-04T18:53:11.837Z,41.25
2019-03-04T18:55:42.611Z,40.60
2019-03-04T18:58:13.035Z,34.35
2019-03-04T19:00:43.184Z,29.77
2019-03-04T19:06:32.618Z,13.35
2019-03-04T19:09:05.719Z,12.95
2019-03-04T19:11:36.848Z,11.60
2019-03-04T19:14:06.463Z,13.77
2019-03-04T19:16:41.104Z,13.98
2019-03-04T19:19:10.739Z,13.22
2019-03-04T19:21:40.399Z,13.70
2019-03-04T19:24:11.724Z,13.98
2019-03-04T19:26:44.125Z,14.03
2019-03-04T19:29:16.184Z,13.18
2019-03-04T19:31:45.794Z,13.28
2019-03-04T19:34:21.927Z,14.70
2019-03-04T19:36:51.631Z,13.83
2019-03-04T19:39:23.085Z,13.40
2019-03-04T19:41:52.610Z,13.15
2019-03-04T19:44:22.244Z,14.10
2019-03-04T19:46:51.769Z,13.30
2019-03-04T19:49:21.298Z,13.57
2019-03-04T19:51:50.847Z,13.80
2019-03-04T19:54:24.724Z,14.03
2019-03-04T19:56:54.002Z,13.98
2019-03-04T19:59:23.683Z,13.40
2019-03-04T20:01:53.205Z,13.60
2019-03-04T20:04:22.697Z,13.43
2019-03-04T20:06:52.307Z,13.75
2019-03-04T20:09:21.874Z,13.48
2019-03-04T20:11:51.457Z,13.30
2019-03-04T20:14:21.063Z,14.07
2019-03-04T20:16:50.601Z,14.30
2019-03-04T20:19:20.080Z,13.83
2019-03-04T20:21:49.670Z,14.03
2019-03-04T20:24:19.271Z,12.98
2019-03-04T20:26:49.010Z,13.62
2019-03-04T20:29:18.608Z,15.05
2019-03-04T20:48:20.509Z,31.27
2019-03-04T20:50:50.222Z,34.33
2019-03-04T20:53:19.924Z,33.95
2019-03-04T20:55:50.043Z,32.85
2019-03-04T20:58:19.709Z,33.65
2019-03-04T21:00:49.457Z,33.63
2019-03-04T21:03:19.183Z,33.92
2019-03-04T21:05:49.013Z,34.05
2019-03-04T21:08:18.843Z,35.90
2019-03-04T21:10:50.936Z,36.15
2019-03-04T21:13:34.865Z,37.63
2019-03-04T21:15:56.529Z,36.45
2019-03-04T21:18:26.362Z,37.93
2019-03-04T21:20:56.092Z,38.35
2019-03-04T21:23:25.810Z,35.68
2019-03-04T21:26:07.925Z,33.70
2019-03-04T21:28:58.624Z,35.20
2019-03-04T21:31:47.980Z,32.80
2019-03-04T21:34:26.612Z,33.98
2019-03-04T21:37:08.527Z,34.03
2019-03-04T21:39:48.489Z,33.58
2019-03-04T21:42:24.851Z,31.30
2019-03-04T21:45:03.593Z,34.50
2019-03-04T21:47:44.441Z,33.53
2019-03-04T21:50:27.257Z,34.00
2019-03-04T21:53:07.543Z,33.13
2019-03-04T21:55:43.213Z,31.55
2019-03-04T21:58:12.944Z,30.55
2019-03-04T22:00:46.043Z,33.90
2019-03-04T22:03:18.294Z,31.25
2019-03-04T22:05:50.483Z,30.82
2019-03-04T22:08:20.959Z,32.85
2019-03-04T22:10:50.694Z,30.55
2019-03-04T22:13:20.424Z,31.87
2019-03-04T22:15:50.160Z,29.75
2019-03-04T22:18:19.878Z,30.43
2019-03-04T22:20:49.607Z,29.15
2019-03-04T22:23:19.241Z,29.42
2019-03-04T22:25:48.976Z,28.47
2019-03-04T22:28:18.707Z,27.10
2019-03-04T22:30:48.425Z,31.68
2019-03-04T22:33:18.184Z,31.27
2019-03-04T22:35:47.790Z,32.23
2019-03-04T22:38:17.526Z,31.63
2019-03-04T22:40:47.143Z,28.98
2019-03-04T22:43:16.678Z,32.17
2019-03-04T22:45:46.427Z,28.97
2019-03-04T22:48:16.021Z,31.85
2019-03-04T22:50:45.661Z,31.70
2019-03-04T22:53:15.324Z,31.47
2019-03-04T22:55:45.252Z,31.35
2019-03-04T22:58:14.983Z,30.32
2019-03-04T23:00:55.111Z,31.35
2019-03-04T23:03:27.395Z,29.60
2019-03-04T23:06:00.300Z,30.55
2019-03-04T23:08:30.028Z,28.52
2019-03-04T23:10:59.625Z,31.30
2019-03-04T23:13:32.557Z,28.90
2019-03-04T23:16:02.696Z,31.82
2019-03-04T23:18:32.426Z,32.23
2019-03-04T23:21:02.154Z,30.30
2019-03-04T23:23:31.783Z,31.37
2019-03-04T23:26:01.514Z,30.72
2019-03-04T23:28:32.264Z,29.50
2019-03-04T23:31:02.042Z,30.92
2019-03-04T23:33:31.524Z,31.00
2019-03-04T23:36:01.152Z,28.20
2019-03-04T23:38:30.775Z,32.00
2019-03-04T23:41:00.518Z,28.70
2019-03-04T23:43:31.976Z,29.57
2019-03-04T23:46:01.708Z,29.85
2019-03-04T23:48:31.338Z,29.37
2019-03-04T23:51:00.963Z,30.93
2019-03-04T23:53:31.245Z,31.20
2019-03-04T23:56:01.959Z,28.12
2019-03-04T23:58:31.585Z,30.35
